createdAt,value
2019-01-25T00:04:58.980Z,6.80
2019-01-25T00:10:02.558Z,5.40
2019-01-25T00:15:09.279Z,5.60
2019-01-25T00:20:13.896Z,7.12
2019-01-25T00:25:17.375Z,5.03
2019-01-25T00:30:21.090Z,6.70
2019-01-25T00:35:24.565Z,6.40
2019-01-25T00:40:28.045Z,6.97
2019-01-25T00:45:31.528Z,6.10
2019-01-25T00:50:35.020Z,6.33
2019-01-25T00:55:38.481Z,7.20
2019-01-25T01:00:41.955Z,5.60
2019-01-25T01:05:45.429Z,5.03
2019-01-25T01:10:48.913Z,5.83
2019-01-25T01:15:52.392Z,6.37
2019-01-25T01:20:55.880Z,6.85
2019-01-25T01:25:59.353Z,5.95
2019-01-25T01:31:02.828Z,6.53
2019-01-25T01:36:06.301Z,4.97
2019-01-25T01:41:09.777Z,6.00
2019-01-25T01:46:13.253Z,5.20
2019-01-25T01:51:16.733Z,5.43
2019-01-25T01:56:20.209Z,5.35
2019-01-25T02:01:23.673Z,5.37
2019-01-25T02:06:27.251Z,5.47
2019-01-25T02:11:30.709Z,6.53
2019-01-25T02:16:34.168Z,5.62
2019-01-25T02:21:37.629Z,5.10
2019-01-25T02:26:41.173Z,5.62
2019-01-25T02:31:44.649Z,6.33
2019-01-25T02:36:48.109Z,5.63
2019-01-25T02:41:51.571Z,5.83
2019-01-25T02:46:55.030Z,5.33
2019-01-25T02:51:58.490Z,5.33
2019-01-25T02:57:01.950Z,5.70
2019-01-25T03:02:06.449Z,5.12
2019-01-25T03:07:09.978Z,6.37
2019-01-25T03:12:13.436Z,7.67
2019-01-25T03:17:16.902Z,5.62
2019-01-25T03:22:20.364Z,6.07
2019-01-25T03:27:23.830Z,5.70
2019-01-25T03:32:27.295Z,5.50
2019-01-25T03:37:30.760Z,6.17
2019-01-25T03:42:34.234Z,5.45
2019-01-25T03:47:37.714Z,5.83
2019-01-25T03:52:41.176Z,3.90
2019-01-25T03:57:44.643Z,6.47
2019-01-25T04:02:48.340Z,4.87
2019-01-25T04:07:51.870Z,6.87
2019-01-25T04:12:55.329Z,4.80
2019-01-25T04:17:58.962Z,6.83
2019-01-25T04:23:02.422Z,4.57
2019-01-25T04:28:06.017Z,5.83
2019-01-25T04:33:09.479Z,5.28
2019-01-25T04:38:12.943Z,6.05
2019-01-25T04:43:16.397Z,4.83
2019-01-25T04:48:19.887Z,5.30
2019-01-25T04:53:23.323Z,5.40
2019-01-25T04:58:26.782Z,5.03
2019-01-25T05:03:30.247Z,5.30
2019-01-25T05:08:33.714Z,6.93
2019-01-25T05:13:37.174Z,8.27
2019-01-25T05:18:40.638Z,6.37
2019-01-25T05:23:44.102Z,8.40
2019-01-25T05:28:47.635Z,5.93
2019-01-25T05:33:51.938Z,4.90
2019-01-25T05:38:55.404Z,6.67
2019-01-25T05:43:58.875Z,6.90
2019-01-25T05:49:02.342Z,6.00
2019-01-25T05:54:05.970Z,5.97
2019-01-25T05:59:09.434Z,4.17
2019-01-25T06:04:12.899Z,4.95
2019-01-25T06:09:20.817Z,4.60
2019-01-25T06:14:24.278Z,4.50
2019-01-25T06:19:29.385Z,5.37
2019-01-25T06:24:32.847Z,5.13
2019-01-25T06:29:36.318Z,4.57
2019-01-25T06:34:39.778Z,5.43
2019-01-25T06:39:43.244Z,5.00
2019-01-25T06:44:46.717Z,5.95
2019-01-25T06:49:50.189Z,5.60
2019-01-25T06:54:53.655Z,5.23
2019-01-25T06:59:57.115Z,5.50
2019-01-25T07:05:00.580Z,4.43
2019-01-25T07:10:06.322Z,5.63
2019-01-25T07:15:12.498Z,5.67
2019-01-25T07:20:17.315Z,5.70
2019-01-25T07:25:20.781Z,5.17
2019-01-25T07:30:24.250Z,5.03
2019-01-25T07:35:27.711Z,5.80
2019-01-25T07:40:31.184Z,4.93
2019-01-25T07:45:34.649Z,5.10
2019-01-25T07:50:38.118Z,7.70
2019-01-25T07:55:41.614Z,4.80
2019-01-25T08:00:45.631Z,5.57
2019-01-25T08:05:49.092Z,5.90
2019-01-25T08:10:52.561Z,3.77
2019-01-25T08:15:56.023Z,9.58
2019-01-25T08:20:59.503Z,4.50
2019-01-25T08:26:03.132Z,5.28
2019-01-25T08:31:06.801Z,4.70
2019-01-25T08:36:10.762Z,39.27
2019-01-25T08:41:14.222Z,39.27
2019-01-25T08:46:17.721Z,37.37
2019-01-25T08:51:21.200Z,36.50
2019-01-25T08:56:24.664Z,32.33
2019-01-25T09:01:28.177Z,28.03
2019-01-25T09:06:31.599Z,29.00
2019-01-25T09:11:35.073Z,26.87
2019-01-25T09:16:38.546Z,22.50
2019-01-25T09:21:42.016Z,22.23
2019-01-25T09:26:45.780Z,25.32
2019-01-25T09:31:49.243Z,25.53
2019-01-25T09:36:52.716Z,23.45
2019-01-25T09:41:56.189Z,23.50
2019-01-25T09:46:59.660Z,20.10
2019-01-25T09:52:03.132Z,21.20
2019-01-25T09:57:06.605Z,21.03
2019-01-25T10:02:10.076Z,23.20
2019-01-25T10:07:13.553Z,21.03
2019-01-25T10:12:17.025Z,31.10
2019-01-25T10:17:20.504Z,30.92
2019-01-25T10:22:23.984Z,30.20
2019-01-25T10:27:27.459Z,29.15
2019-01-25T10:32:30.936Z,27.43
2019-01-25T10:37:34.410Z,24.97
2019-01-25T10:42:44.314Z,24.70
2019-01-25T10:47:43.090Z,29.63
2019-01-25T10:52:46.563Z,24.07
2019-01-25T10:57:50.035Z,29.77
2019-01-25T11:02:58.042Z,29.40
2019-01-25T11:07:58.717Z,28.63
2019-01-25T11:13:02.198Z,23.57
2019-01-25T11:18:06.015Z,31.80
2019-01-25T11:23:09.493Z,26.93
2019-01-25T11:28:12.969Z,23.23
2019-01-25T11:33:16.442Z,29.70
2019-01-25T11:38:19.918Z,24.95
2019-01-25T11:43:23.394Z,24.97
2019-01-25T11:48:26.869Z,24.82
2019-01-25T11:53:30.343Z,24.70
2019-01-25T11:58:33.818Z,27.30
2019-01-25T12:03:37.295Z,33.20
2019-01-25T12:08:40.778Z,22.93
2019-01-25T12:13:44.253Z,25.33
2019-01-25T12:18:47.721Z,25.75
2019-01-25T12:23:51.201Z,29.70
2019-01-25T12:28:54.681Z,23.70
2019-01-25T12:33:58.152Z,22.73
2019-01-25T12:39:01.626Z,22.10
2019-01-25T12:44:05.172Z,28.07
2019-01-25T12:49:08.650Z,19.93
2019-01-25T12:54:12.124Z,18.77
2019-01-25T12:59:15.597Z,18.97
2019-01-25T13:04:19.076Z,21.33
2019-01-25T13:09:22.550Z,20.93
2019-01-25T13:14:26.029Z,24.17
2019-01-25T13:19:29.504Z,17.92
2019-01-25T13:24:32.984Z,19.70
2019-01-25T13:29:36.463Z,17.53
2019-01-25T13:34:41.028Z,15.23
2019-01-25T13:39:44.501Z,22.40
2019-01-25T13:44:47.977Z,16.73
2019-01-25T13:49:51.451Z,18.10
2019-01-25T13:54:54.925Z,25.40
2019-01-25T13:59:59.330Z,24.57
2019-01-25T14:05:03.059Z,21.23
2019-01-25T14:10:09.579Z,20.67
2019-01-25T14:15:13.396Z,16.27
2019-01-25T14:20:28.020Z,20.23
2019-01-25T14:31:02.194Z,19.47
2019-01-25T14:36:05.682Z,17.23
2019-01-25T14:41:09.149Z,17.15
2019-01-25T14:46:12.621Z,18.10
2019-01-25T14:51:16.167Z,18.10
2019-01-25T14:56:19.635Z,21.55
2019-01-25T15:01:23.111Z,19.97
2019-01-25T15:06:26.847Z,21.93
2019-01-25T15:11:30.320Z,18.30
2019-01-25T15:16:33.784Z,19.00
2019-01-25T15:21:37.252Z,18.43
2019-01-25T15:26:40.730Z,19.17
2019-01-25T15:31:44.202Z,16.12
2019-01-25T15:36:47.843Z,20.70
2019-01-25T15:41:51.307Z,16.27
2019-01-25T15:46:54.783Z,19.00
2019-01-25T15:51:58.259Z,17.57
2019-01-25T15:57:01.734Z,19.07
2019-01-25T16:02:05.371Z,18.70
2019-01-25T16:07:08.843Z,17.60
2019-01-25T16:12:12.380Z,17.42
2019-01-25T16:17:16.276Z,15.60
2019-01-25T16:22:19.756Z,16.87
2019-01-25T16:27:23.669Z,13.63
2019-01-25T16:32:27.634Z,14.93
2019-01-25T16:37:31.566Z,16.77
2019-01-25T16:42:35.386Z,16.63
2019-01-25T16:47:38.863Z,15.93
2019-01-25T16:52:42.544Z,18.80
2019-01-25T16:57:46.553Z,16.67
2019-01-25T17:02:50.375Z,25.37
2019-01-25T17:07:53.956Z,33.50
2019-01-25T17:12:57.419Z,37.10
2019-01-25T17:18:00.888Z,38.17
2019-01-25T17:23:04.965Z,21.85
2019-01-25T17:28:08.619Z,27.02
2019-01-25T17:33:12.388Z,27.30
2019-01-25T17:38:16.312Z,23.83
2019-01-25T17:43:19.854Z,26.67
2019-01-25T17:48:23.762Z,27.05
2019-01-25T17:53:27.337Z,22.23
2019-01-25T17:58:31.423Z,24.77
2019-01-25T18:03:35.431Z,29.00
2019-01-25T18:08:39.291Z,27.03
2019-01-25T18:13:43.182Z,20.30
2019-01-25T18:18:47.011Z,18.32
2019-01-25T18:23:50.943Z,22.17
2019-01-25T18:28:55.983Z,25.77
2019-01-25T18:34:00.017Z,20.95
2019-01-25T18:39:05.765Z,18.87
2019-01-25T18:44:10.173Z,24.25
2019-01-25T18:49:14.142Z,18.27
2019-01-25T18:54:18.172Z,21.97
2019-01-25T18:59:22.195Z,17.97
2019-01-25T19:04:26.321Z,20.35
2019-01-25T19:09:30.450Z,20.00
2019-01-25T19:14:34.382Z,21.53
2019-01-25T19:19:38.408Z,17.07
2019-01-25T19:24:42.427Z,18.60
2019-01-25T19:29:46.354Z,16.67
2019-01-25T19:34:50.283Z,22.23
2019-01-25T19:39:54.511Z,18.90
2019-01-25T19:44:58.440Z,17.40
2019-01-25T19:50:02.367Z,19.57
2019-01-25T19:55:12.136Z,16.85
2019-01-25T20:00:19.531Z,12.67
2019-01-25T20:05:26.114Z,16.50
2019-01-25T20:10:30.554Z,20.23
2019-01-25T20:15:34.802Z,14.40
2019-01-25T20:20:40.578Z,14.47
2019-01-25T20:25:44.898Z,12.57
2019-01-25T20:30:49.700Z,15.88
2019-01-25T20:35:53.979Z,13.80
2019-01-25T20:40:58.116Z,12.77
2019-01-25T20:46:02.238Z,13.37
2019-01-25T20:51:06.466Z,13.03
2019-01-25T20:56:10.599Z,16.30
2019-01-25T21:01:14.631Z,12.93
2019-01-25T21:06:18.879Z,14.47
2019-01-25T21:11:23.107Z,12.10
2019-01-25T21:16:27.224Z,13.58
2019-01-25T21:21:31.150Z,14.03
2019-01-25T21:26:35.092Z,11.20
2019-01-25T21:31:39.006Z,14.23
2019-01-25T21:36:42.934Z,12.80
2019-01-25T21:41:47.054Z,10.97
2019-01-25T21:46:51.289Z,11.20
2019-01-25T21:51:55.521Z,13.03
2019-01-25T21:56:59.251Z,12.83
2019-01-25T22:02:03.178Z,11.30
2019-01-25T22:07:06.811Z,11.93
2019-01-25T22:12:10.347Z,11.12
2019-01-25T22:17:14.136Z,12.83
2019-01-25T22:22:17.608Z,10.03
2019-01-25T22:27:21.144Z,10.30
2019-01-25T22:32:24.613Z,11.13
2019-01-25T22:37:28.146Z,9.87
2019-01-25T22:42:31.617Z,10.33
2019-01-25T22:47:35.094Z,10.83
2019-01-25T22:52:38.558Z,11.70
2019-01-25T22:57:42.028Z,11.53
2019-01-25T23:02:45.498Z,12.47
2019-01-25T23:07:48.964Z,9.30
2019-01-25T23:12:52.433Z,14.20
2019-01-25T23:17:55.974Z,10.93
2019-01-25T23:22:59.441Z,9.13
2019-01-25T23:28:02.905Z,10.80
2019-01-25T23:33:06.366Z,10.57
2019-01-25T23:38:09.826Z,9.30
2019-01-25T23:43:13.293Z,8.63
2019-01-25T23:48:16.753Z,8.17
2019-01-25T23:53:20.215Z,9.10
2019-01-25T23:58:23.673Z,9.23
